KBBB/BBB METAR and TAF weather

Enter ICAO airport designator
Station Type Date Time Source
KBBB METAR 2019/12/12 11:55 UTC NOAA

KBBB 121155Z AUTO 09007KT 4SM -SN OVC031 M14/M16 A3009 RMK AO2


Station Type Date Time Source
KBBB Decoded METAR 2019/12/12 11:55 UTC NOAA

Benson Municipal, MN, United States (KBBB) 45-19N 095-39W
Dec 12, 2019 - 06:55 AM EST / 2019.12.12 1155 UTC
Wind: from the E (090 degrees) at 8 MPH (7 KT):0
Visibility: 4 mile(s):0
Sky conditions: overcast
Weather: light snow
Temperature: 6 F (-14 C)
Windchill: -7 F (-22 C):2
Dew Point: 3 F (-16 C)
Relative Humidity: 84%
Pressure (altimeter): 30.09 in. Hg (1018 hPa)
ob: KBBB 121155Z AUTO 09007KT 4SM -SN OVC031 M14/M16 A3009 RMK AO2
cycle: 12

Station Type Date Time Source
KBBB TAF UTC NOAA

Error!

Example: see airport list